Time;durP1;ratioP1;P1;durP2;ratioP2;P2;SDS_P1;SDS_P2;PMS_P1;PMS_P2;Temp;Humidity;BMP_temperature;BMP_pressure;BME280_temperature;BME280_humidity;BME280_pressure;Samples;Min_cycle;Max_cycle;Signal;HPM_P1;HPM_P2
2021/07/25 00:00:08;;;;;;;39.08;29.77;;;20.50;98.30;;;;;;5068347;28;20602;-69
2021/07/25 00:02:36;;;;;;;44.35;31.00;;;20.40;98.30;;;;;;5066446;28;20210;-69
2021/07/25 00:05:04;;;;;;;43.35;30.15;;;20.40;98.40;;;;;;5069002;28;20581;-69
2021/07/25 00:07:31;;;;;;;48.30;32.40;;;20.50;98.50;;;;;;5066188;28;20202;-69
2021/07/25 00:09:58;;;;;;;45.55;32.38;;;20.50;98.60;;;;;;5051717;28;20217;-69
2021/07/25 00:12:25;;;;;;;46.55;32.92;;;20.50;98.70;;;;;;5069647;28;20202;-71
2021/07/25 00:14:53;;;;;;;48.80;32.40;;;20.50;98.80;;;;;;5065567;28;20671;-69
2021/07/25 00:17:20;;;;;;;48.25;32.30;;;20.50;98.80;;;;;;5068264;28;20545;-70
2021/07/25 00:19:47;;;;;;;48.47;33.42;;;20.50;98.90;;;;;;5066919;28;21061;-69
2021/07/25 00:22:14;;;;;;;47.53;33.33;;;20.50;99.00;;;;;;5067771;28;20256;-68
2021/07/25 00:24:49;;;;;;;50.42;30.77;;;20.50;99.10;;;;;;5065809;28;20230;-67
2021/07/25 00:27:16;;;;;;;43.05;30.63;;;20.50;99.10;;;;;;5067566;28;20226;-69
2021/07/25 00:29:42;;;;;;;46.47;31.25;;;20.50;99.20;;;;;;5066615;28;20278;-68
2021/07/25 00:32:11;;;;;;;47.67;31.45;;;20.50;99.20;;;;;;5065646;28;20203;-69
2021/07/25 00:34:37;;;;;;;48.63;33.10;;;20.50;99.30;;;;;;5064299;28;20269;-71
2021/07/25 00:37:04;;;;;;;48.33;32.83;;;20.50;99.40;;;;;;5067582;28;20229;-69
2021/07/25 00:39:31;;;;;;;51.72;33.10;;;20.50;99.40;;;;;;5063676;28;20248;-70
2021/07/25 00:41:58;;;;;;;49.63;34.28;;;20.40;99.40;;;;;;5068436;28;20195;-69
2021/07/25 00:44:25;;;;;;;50.47;34.95;;;20.40;99.50;;;;;;5066058;28;20667;-68
2021/07/25 00:46:57;;;;;;;54.28;35.05;;;20.30;99.60;;;;;;5068038;28;20681;-69
2021/07/25 00:49:27;;;;;;;53.40;36.38;;;20.30;99.70;;;;;;5051484;28;20206;-69
2021/07/25 00:51:54;;;;;;;59.25;36.40;;;20.20;99.80;;;;;;5068017;28;20198;-69
2021/07/25 00:54:21;;;;;;;51.15;35.42;;;20.20;99.90;;;;;;5065044;28;20206;-70
2021/07/25 00:56:48;;;;;;;52.03;35.92;;;20.20;99.90;;;;;;5065495;28;20648;-70
2021/07/25 00:59:15;;;;;;;55.45;36.95;;;20.20;99.90;;;;;;5065911;28;20206;-69
2021/07/25 01:01:42;;;;;;;57.25;38.17;;;20.20;99.90;;;;;;5065920;28;20623;-70
2021/07/25 01:04:19;;;;;;;54.65;36.13;;;20.20;99.90;;;;;;5066121;28;20199;-70
2021/07/25 01:06:59;;;;;;;52.55;36.13;;;20.20;99.90;;;;;;5065373;28;20213;-69
2021/07/25 01:09:47;;;;;;;57.58;38.33;;;20.20;99.90;;;;;;5065996;28;20217;-68
2021/07/25 01:12:18;;;;;;;60.20;37.90;;;20.20;99.90;;;;;;5065994;28;20539;-69
2021/07/25 01:14:46;;;;;;;55.40;37.33;;;20.20;99.90;;;;;;5065377;28;20214;-68
2021/07/25 01:17:30;;;;;;;54.40;37.13;;;20.20;99.90;;;;;;5067867;28;20640;-68
2021/07/25 01:19:59;;;;;;;53.47;34.92;;;20.20;99.90;;;;;;5063129;28;20259;-69
2021/07/25 01:22:28;;;;;;;56.28;36.28;;;20.20;99.90;;;;;;5065532;28;20191;-69
2021/07/25 01:24:55;;;;;;;59.30;38.17;;;20.20;99.90;;;;;;5063782;28;20699;-70
2021/07/25 01:27:29;;;;;;;58.45;38.33;;;20.20;99.90;;;;;;5067026;28;20666;-69
2021/07/25 01:29:58;;;;;;;59.40;40.00;;;20.20;99.90;;;;;;5065580;28;20214;-70
2021/07/25 01:32:27;;;;;;;56.38;38.60;;;20.20;99.90;;;;;;5066205;28;20202;-68
2021/07/25 01:34:57;;;;;;;56.63;39.13;;;20.20;99.90;;;;;;5065856;28;20682;-68
2021/07/25 01:37:28;;;;;;;58.65;39.47;;;20.20;99.90;;;;;;5066531;28;20207;-69
2021/07/25 01:39:55;;;;;;;58.28;40.92;;;20.20;99.90;;;;;;5068298;28;20248;-70
2021/07/25 01:42:29;;;;;;;63.30;43.10;;;20.20;99.90;;;;;;5050596;28;20603;-69
2021/07/25 01:44:56;;;;;;;67.30;43.40;;;20.20;99.90;;;;;;5067736;28;20725;-67
2021/07/25 01:47:23;;;;;;;70.80;44.03;;;20.20;99.90;;;;;;5065192;28;20199;-69
2021/07/25 01:49:50;;;;;;;67.88;42.88;;;20.20;99.90;;;;;;5066552;28;20195;-70
2021/07/25 01:52:17;;;;;;;65.45;44.20;;;20.20;99.90;;;;;;5065278;28;20233;-69
2021/07/25 01:54:45;;;;;;;68.47;45.85;;;20.20;99.90;;;;;;5066812;28;20198;-68
2021/07/25 01:57:12;;;;;;;75.25;47.70;;;20.20;99.90;;;;;;5064513;28;20217;-69
2021/07/25 01:59:38;;;;;;;80.82;50.10;;;20.10;99.90;;;;;;5065774;28;20264;-68
2021/07/25 02:02:05;;;;;;;76.38;48.45;;;20.10;99.90;;;;;;5063754;28;20207;-68
2021/07/25 02:04:32;;;;;;;83.80;51.25;;;20.10;99.90;;;;;;5065572;28;20206;-69
2021/07/25 02:06:59;;;;;;;90.55;52.35;;;20.00;99.90;;;;;;5067854;28;20194;-69
2021/07/25 02:09:28;;;;;;;81.93;51.70;;;20.00;99.90;;;;;;5047117;28;20347;-69
2021/07/25 02:11:56;;;;;;;86.20;52.47;;;20.00;99.90;;;;;;5067882;28;20202;-70
2021/07/25 02:14:23;;;;;;;87.70;51.70;;;19.90;99.90;;;;;;5064707;28;20233;-69
2021/07/25 02:16:50;;;;;;;76.75;49.63;;;19.90;99.90;;;;;;5065950;28;20215;-68
2021/07/25 02:19:17;;;;;;;86.97;50.80;;;19.90;99.90;;;;;;5064204;28;20233;-69
2021/07/25 02:21:44;;;;;;;82.13;52.83;;;19.80;99.90;;;;;;5066551;28;20210;-69
2021/07/25 02:24:10;;;;;;;92.18;54.03;;;19.80;99.90;;;;;;5047866;28;20693;-69
2021/07/25 02:26:37;;;;;;;91.40;53.97;;;19.80;99.90;;;;;;5063619;28;20217;-70
2021/07/25 02:29:05;;;;;;;88.78;53.10;;;19.80;99.90;;;;;;5063590;28;20203;-69
2021/07/25 02:31:33;;;;;;;98.82;56.70;;;19.70;99.90;;;;;;5061708;28;20891;-69
2021/07/25 02:33:59;;;;;;;97.60;54.53;;;19.80;99.90;;;;;;5066444;28;20202;-70
2021/07/25 02:36:26;;;;;;;100.07;57.05;;;19.70;99.90;;;;;;5063606;28;20231;-69
2021/07/25 02:38:53;;;;;;;99.47;55.10;;;19.70;99.90;;;;;;5064880;28;20202;-69
2021/07/25 02:41:20;;;;;;;100.75;57.92;;;19.70;99.90;;;;;;5064336;28;20210;-68
2021/07/25 02:43:47;;;;;;;111.03;60.75;;;19.70;99.90;;;;;;5065362;28;20575;-68
2021/07/25 02:46:15;;;;;;;110.60;60.53;;;19.70;99.90;;;;;;5061532;28;20603;-69
2021/07/25 02:48:42;;;;;;;104.55;61.20;;;19.70;99.90;;;;;;5066337;28;20194;-70
2021/07/25 02:51:09;;;;;;;117.00;65.70;;;19.60;99.90;;;;;;5065257;28;20207;-69
2021/07/25 02:53:36;;;;;;;118.20;68.05;;;19.60;99.90;;;;;;5065950;28;20210;-70
2021/07/25 02:56:03;;;;;;;123.07;69.10;;;19.60;99.90;;;;;;5063949;28;20209;-69
2021/07/25 02:58:30;;;;;;;116.53;67.30;;;19.60;99.90;;;;;;5062751;28;20299;-69
2021/07/25 03:00:57;;;;;;;126.30;69.75;;;19.60;99.90;;;;;;5066208;28;20202;-70
2021/07/25 03:03:25;;;;;;;125.10;69.50;;;19.60;99.90;;;;;;5062013;28;20198;-70
2021/07/25 03:05:52;;;;;;;134.38;72.35;;;19.60;99.90;;;;;;5065195;28;20221;-68
2021/07/25 03:08:19;;;;;;;133.23;72.50;;;19.60;99.90;;;;;;5064927;28;20683;-69
2021/07/25 03:10:45;;;;;;;131.43;75.30;;;19.60;99.90;;;;;;5064006;28;20203;-69
2021/07/25 03:13:12;;;;;;;135.57;76.65;;;19.50;99.90;;;;;;5047239;28;20249;-69
2021/07/25 03:15:39;;;;;;;136.75;76.50;;;19.60;99.90;;;;;;5063057;28;20207;-70
2021/07/25 03:18:06;;;;;;;145.13;77.78;;;19.50;99.90;;;;;;5064745;28;20686;-69
2021/07/25 03:20:34;;;;;;;145.68;79.13;;;19.50;99.90;;;;;;5045472;28;20202;-69
2021/07/25 03:23:01;;;;;;;142.13;79.63;;;19.50;99.90;;;;;;5064839;28;20194;-70
2021/07/25 03:25:28;;;;;;;143.82;79.15;;;19.50;99.90;;;;;;5063086;28;20209;-69
2021/07/25 03:27:55;;;;;;;157.60;83.05;;;19.50;99.90;;;;;;5064264;28;20647;-70
2021/07/25 03:30:21;;;;;;;149.77;81.78;;;19.50;99.90;;;;;;5048253;28;20198;-70
2021/07/25 03:32:48;;;;;;;151.25;80.35;;;19.40;99.90;;;;;;5061229;28;20217;-70
2021/07/25 03:35:15;;;;;;;165.73;85.22;;;19.50;99.90;;;;;;5063710;28;20230;-69
2021/07/25 03:37:45;;;;;;;160.57;85.32;;;19.50;99.90;;;;;;5067275;28;20222;-70
2021/07/25 03:40:13;;;;;;;164.98;86.82;;;19.40;99.90;;;;;;5067599;28;22162;-69
2021/07/25 03:42:40;;;;;;;166.60;85.68;;;19.50;99.90;;;;;;5067664;28;20206;-69
2021/07/25 03:45:08;;;;;;;163.90;83.07;;;19.50;99.90;;;;;;5066560;28;20213;-69
2021/07/25 03:47:35;;;;;;;165.38;86.88;;;19.50;99.90;;;;;;5065612;28;20726;-69
2021/07/25 03:50:02;;;;;;;162.88;84.50;;;19.50;99.90;;;;;;5064465;28;20868;-70
2021/07/25 03:52:29;;;;;;;158.10;84.07;;;19.50;99.90;;;;;;5067588;28;20206;-69
2021/07/25 03:54:57;;;;;;;173.30;84.55;;;19.50;99.90;;;;;;5063288;28;20206;-68
2021/07/25 03:57:25;;;;;;;155.23;82.60;;;19.50;99.90;;;;;;5067601;28;20218;-69
2021/07/25 03:59:52;;;;;;;154.13;81.82;;;19.50;99.90;;;;;;5062988;28;20234;-69
2021/07/25 04:02:19;;;;;;;157.65;79.10;;;19.50;99.90;;;;;;5064023;28;20578;-70
2021/07/25 04:04:46;;;;;;;151.95;82.00;;;19.50;99.90;;;;;;5063398;28;20686;-69
2021/07/25 04:07:13;;;;;;;160.15;79.80;;;19.50;99.90;;;;;;5064465;28;20199;-68
2021/07/25 04:09:39;;;;;;;127.20;70.93;;;19.50;99.90;;;;;;5064123;28;20672;-69
2021/07/25 04:12:08;;;;;;;136.38;73.85;;;19.60;99.90;;;;;;5066133;28;20206;-70
2021/07/25 04:14:35;;;;;;;133.90;68.68;;;19.60;99.90;;;;;;5066404;28;20252;-69
2021/07/25 04:17:03;;;;;;;136.23;67.35;;;19.60;99.90;;;;;;5048131;28;20206;-70
2021/07/25 04:19:29;;;;;;;118.55;62.75;;;19.60;99.90;;;;;;5051024;28;20234;-70
2021/07/25 04:21:58;;;;;;;110.13;58.30;;;19.60;99.90;;;;;;5064676;28;20203;-70
2021/07/25 04:24:25;;;;;;;102.47;56.38;;;19.60;99.90;;;;;;5061987;28;20205;-69
2021/07/25 04:26:52;;;;;;;90.78;51.70;;;19.60;99.90;;;;;;5059530;28;20206;-69
2021/07/25 04:29:21;;;;;;;91.30;51.03;;;19.60;99.90;;;;;;5068360;28;20683;-69
2021/07/25 04:31:48;;;;;;;87.40;47.78;;;19.60;99.90;;;;;;5065887;28;20272;-68
2021/07/25 04:34:15;;;;;;;85.40;48.78;;;19.70;99.90;;;;;;5068399;28;20202;-67
2021/07/25 04:36:44;;;;;;;89.38;48.65;;;19.60;99.90;;;;;;5067335;28;20728;-69
2021/07/25 04:39:11;;;;;;;74.75;43.22;;;19.70;99.90;;;;;;5069450;28;20222;-69
2021/07/25 04:41:41;;;;;;;59.08;36.22;;;19.70;99.90;;;;;;5066524;28;20214;-70
2021/07/25 04:44:16;;;;;;;68.63;42.42;;;19.70;99.90;;;;;;5068453;28;20195;-69
2021/07/25 04:46:47;;;;;;;73.18;43.45;;;19.70;99.90;;;;;;5067540;28;20255;-70
2021/07/25 04:49:16;;;;;;;73.95;44.15;;;19.70;99.90;;;;;;5048821;28;20226;-71
2021/07/25 04:51:45;;;;;;;83.90;51.15;;;19.60;99.90;;;;;;5067150;28;20203;-73
2021/07/25 04:54:14;;;;;;;80.47;47.28;;;19.60;99.90;;;;;;5067279;28;20247;-72
2021/07/25 04:56:58;;;;;;;79.00;45.10;;;19.60;99.90;;;;;;5063125;28;20201;-68
2021/07/25 04:59:29;;;;;;;79.30;46.58;;;19.60;99.90;;;;;;5064537;28;20303;-69
2021/07/25 05:02:03;;;;;;;80.38;47.75;;;19.60;99.90;;;;;;5062743;28;20633;-69
2021/07/25 05:04:31;;;;;;;88.20;49.17;;;19.50;99.90;;;;;;5065787;28;20205;-70
2021/07/25 05:06:58;;;;;;;79.80;47.72;;;19.50;99.90;;;;;;5062413;28;20206;-68
2021/07/25 05:09:26;;;;;;;80.55;46.83;;;19.60;99.90;;;;;;5066711;28;20222;-70
2021/07/25 05:11:55;;;;;;;87.13;49.72;;;19.50;99.90;;;;;;5063193;28;20221;-71
2021/07/25 05:14:28;;;;;;;87.55;49.80;;;19.60;99.90;;;;;;5064701;28;21018;-71
2021/07/25 05:17:04;;;;;;;91.28;51.25;;;19.60;99.90;;;;;;5061500;28;20659;-71
2021/07/25 05:19:41;;;;;;;94.40;54.78;;;19.60;99.90;;;;;;5064346;28;20214;-70
2021/07/25 05:22:19;;;;;;;95.72;57.10;;;19.60;99.90;;;;;;5062046;28;20220;-70
2021/07/25 05:24:47;;;;;;;98.88;56.03;;;19.70;99.90;;;;;;5065137;28;20567;-70
2021/07/25 05:27:21;;;;;;;107.28;59.83;;;19.70;99.90;;;;;;5059655;28;20199;-70
2021/07/25 05:29:49;;;;;;;120.13;65.78;;;19.80;99.90;;;;;;5066587;28;20202;-69
2021/07/25 05:32:19;;;;;;;121.97;67.03;;;19.80;99.90;;;;;;5047203;28;20214;-69
2021/07/25 05:34:46;;;;;;;123.65;69.63;;;19.90;99.90;;;;;;5063450;28;20275;-69
2021/07/25 05:37:13;;;;;;;123.30;69.90;;;19.90;99.90;;;;;;5056264;28;20207;-71
2021/07/25 05:39:40;;;;;;;129.70;71.60;;;19.90;99.90;;;;;;5061969;28;21674;-70
2021/07/25 05:42:08;;;;;;;135.30;71.82;;;19.90;99.90;;;;;;5059951;28;20198;-69
2021/07/25 05:44:34;;;;;;;130.98;70.90;;;19.90;99.90;;;;;;5049279;28;20217;-69
2021/07/25 05:47:01;;;;;;;135.80;75.60;;;20.00;99.90;;;;;;5061444;28;20202;-71
2021/07/25 05:49:29;;;;;;;137.85;74.20;;;20.00;99.90;;;;;;5061654;28;20457;-69
2021/07/25 05:51:56;;;;;;;141.30;75.60;;;20.00;99.90;;;;;;5062835;28;20206;-69
2021/07/25 05:54:23;;;;;;;127.65;69.38;;;20.10;99.90;;;;;;5063719;28;20264;-69
2021/07/25 05:56:50;;;;;;;131.30;74.80;;;20.10;99.90;;;;;;5065676;28;20206;-69
2021/07/25 05:59:17;;;;;;;134.75;75.13;;;20.20;99.90;;;;;;5051589;28;20580;-68
2021/07/25 06:01:44;;;;;;;132.25;76.03;;;20.20;99.90;;;;;;5061151;28;20213;-70
2021/07/25 06:04:11;;;;;;;135.88;74.63;;;20.20;99.90;;;;;;5066038;28;20202;-70
2021/07/25 06:06:39;;;;;;;133.30;75.05;;;20.30;99.90;;;;;;5065788;28;20491;-69
2021/07/25 06:09:07;;;;;;;124.25;70.95;;;20.30;99.90;;;;;;5063024;28;20205;-69
2021/07/25 06:11:34;;;;;;;124.55;72.85;;;20.40;99.90;;;;;;5065411;28;20281;-68
2021/07/25 06:14:02;;;;;;;113.80;69.70;;;20.40;99.90;;;;;;5064338;28;20207;-67
2021/07/25 06:16:29;;;;;;;123.18;71.35;;;20.40;99.90;;;;;;5065640;28;20238;-68
2021/07/25 06:18:56;;;;;;;110.25;65.00;;;20.50;99.90;;;;;;5064405;28;20218;-67
2021/07/25 06:21:23;;;;;;;106.80;64.38;;;20.50;99.90;;;;;;5066555;28;20216;-67
2021/07/25 06:23:52;;;;;;;101.88;62.65;;;20.50;99.90;;;;;;5064383;28;20234;-68
2021/07/25 06:26:19;;;;;;;100.30;60.55;;;20.60;99.90;;;;;;5066050;28;20348;-70
2021/07/25 06:28:46;;;;;;;101.35;61.75;;;20.60;99.90;;;;;;5065342;28;20566;-69
2021/07/25 06:31:13;;;;;;;94.78;57.65;;;20.60;99.90;;;;;;5063393;28;20577;-69
2021/07/25 06:33:40;;;;;;;104.60;60.80;;;20.60;99.90;;;;;;5065189;28;20221;-70
2021/07/25 06:36:10;;;;;;;101.97;60.20;;;20.60;99.90;;;;;;5063049;28;20340;-69
2021/07/25 06:38:37;;;;;;;97.93;60.60;;;20.70;99.90;;;;;;5047242;28;20336;-69
2021/07/25 06:41:06;;;;;;;106.35;60.92;;;20.60;99.90;;;;;;5060196;28;20198;-70
2021/07/25 06:43:33;;;;;;;102.47;60.45;;;20.70;99.90;;;;;;5060421;28;20207;-68
2021/07/25 06:46:00;;;;;;;110.20;61.65;;;20.70;99.90;;;;;;5064176;28;20198;-67
2021/07/25 06:48:29;;;;;;;94.93;58.75;;;20.80;99.90;;;;;;5066105;28;20247;-70
2021/07/25 06:50:57;;;;;;;98.50;58.92;;;20.90;99.90;;;;;;5060593;28;20210;-70
2021/07/25 06:53:25;;;;;;;98.13;57.13;;;20.90;99.90;;;;;;5061709;28;20206;-68
2021/07/25 06:55:54;;;;;;;96.70;57.45;;;20.90;99.90;;;;;;5066324;28;20307;-70
2021/07/25 06:58:23;;;;;;;94.95;56.40;;;21.00;99.90;;;;;;5060075;28;20211;-72
2021/07/25 07:00:50;;;;;;;85.13;52.05;;;21.00;99.90;;;;;;5043425;28;20218;-67
2021/07/25 07:03:19;;;;;;;87.35;50.47;;;21.10;99.90;;;;;;5063151;28;20206;-71
2021/07/25 07:05:46;;;;;;;83.10;49.40;;;21.10;99.90;;;;;;5066197;28;20230;-70
2021/07/25 07:08:13;;;;;;;84.43;51.10;;;21.10;99.90;;;;;;5062569;28;20588;-68
2021/07/25 07:10:42;;;;;;;89.55;51.92;;;21.20;99.90;;;;;;5063670;28;20207;-67
2021/07/25 07:13:11;;;;;;;84.13;49.38;;;21.20;99.90;;;;;;5063887;28;20190;-67
2021/07/25 07:15:41;;;;;;;76.18;49.75;;;21.20;99.90;;;;;;5062716;28;20199;-67
2021/07/25 07:18:08;;;;;;;76.95;46.28;;;21.20;99.90;;;;;;5047095;28;20206;-67
2021/07/25 07:20:35;;;;;;;76.30;43.90;;;21.30;99.90;;;;;;5060054;28;22152;-68
2021/07/25 07:23:04;;;;;;;73.13;43.63;;;21.40;99.90;;;;;;5060510;28;20210;-69
2021/07/25 07:25:34;;;;;;;67.88;42.25;;;21.40;99.90;;;;;;5061679;28;20218;-67
2021/07/25 07:28:01;;;;;;;64.40;39.95;;;21.50;99.90;;;;;;5059477;28;20198;-67
2021/07/25 07:30:28;;;;;;;60.78;36.33;;;21.60;99.90;;;;;;5064887;28;20190;-68
2021/07/25 07:33:05;;;;;;;65.63;39.03;;;21.60;99.90;;;;;;5063949;28;20203;-69
2021/07/25 07:35:32;;;;;;;63.65;38.20;;;21.70;99.90;;;;;;5064053;28;20237;-68
2021/07/25 07:37:58;;;;;;;45.47;28.60;;;21.70;99.90;;;;;;5058194;28;20202;-69
2021/07/25 07:40:29;;;;;;;38.00;25.65;;;21.70;99.90;;;;;;5061089;28;20191;-71
2021/07/25 07:42:56;;;;;;;34.85;23.13;;;21.70;99.90;;;;;;5061814;28;20210;-74
2021/07/25 07:45:23;;;;;;;34.78;22.38;;;21.70;99.90;;;;;;5065170;28;20206;-73
2021/07/25 07:47:50;;;;;;;33.58;19.20;;;21.60;99.90;;;;;;5045648;28;20210;-71
2021/07/25 07:50:20;;;;;;;32.97;21.27;;;21.60;99.90;;;;;;5062205;28;20198;-74
2021/07/25 07:52:50;;;;;;;32.28;20.67;;;21.60;99.90;;;;;;5059847;28;20213;-72
2021/07/25 07:55:18;;;;;;;34.00;20.90;;;21.60;99.90;;;;;;5064012;28;20212;-74
2021/07/25 07:57:45;;;;;;;31.40;19.27;;;21.70;99.90;;;;;;5063017;28;20682;-72
2021/07/25 08:00:13;;;;;;;35.42;19.67;;;21.60;99.90;;;;;;5063253;28;20214;-69
2021/07/25 08:02:43;;;;;;;31.88;20.25;;;21.60;99.90;;;;;;5064942;28;20198;-71
2021/07/25 08:05:11;;;;;;;28.58;18.80;;;21.60;99.90;;;;;;5060781;28;20350;-68
2021/07/25 08:07:39;;;;;;;30.73;18.17;;;21.60;99.90;;;;;;5061036;28;20636;-69
2021/07/25 08:10:07;;;;;;;33.13;19.42;;;21.60;99.90;;;;;;5060078;28;20203;-71
2021/07/25 08:12:35;;;;;;;28.20;18.70;;;21.60;99.90;;;;;;5064641;28;20202;-71
2021/07/25 08:15:02;;;;;;;31.88;20.35;;;21.60;99.90;;;;;;5060714;28;20206;-69
2021/07/25 08:17:29;;;;;;;35.53;20.67;;;21.60;99.90;;;;;;5044019;28;20560;-70
2021/07/25 08:19:56;;;;;;;33.10;20.27;;;21.50;99.90;;;;;;5062150;28;20219;-71
2021/07/25 08:22:23;;;;;;;30.55;18.42;;;21.50;99.90;;;;;;5065039;28;20689;-69
2021/07/25 08:24:51;;;;;;;30.00;19.38;;;21.50;99.90;;;;;;5068961;28;20678;-66
2021/07/25 08:27:18;;;;;;;29.25;18.48;;;21.40;99.90;;;;;;5052209;28;20209;-71
2021/07/25 08:29:45;;;;;;;27.98;18.90;;;21.40;99.90;;;;;;5051678;28;20214;-73
2021/07/25 08:32:12;;;;;;;32.75;19.42;;;21.40;99.90;;;;;;5065393;28;20202;-73
2021/07/25 08:34:39;;;;;;;30.50;19.85;;;21.40;99.90;;;;;;5068875;28;20215;-71
2021/07/25 08:37:07;;;;;;;36.75;20.40;;;21.40;99.90;;;;;;5068122;28;20237;-74
2021/07/25 08:39:34;;;;;;;38.58;24.55;;;21.40;99.90;;;;;;5065848;28;20233;-73
2021/07/25 08:42:06;;;;;;;37.63;22.48;;;21.40;99.90;;;;;;5068134;28;20298;-71
2021/07/25 08:44:45;;;;;;;39.72;23.80;;;21.40;99.90;;;;;;5066246;28;20287;-73
2021/07/25 08:47:22;;;;;;;39.60;22.98;;;21.30;99.90;;;;;;5066549;28;20570;-74
2021/07/25 08:49:55;;;;;;;38.45;23.55;;;21.30;99.90;;;;;;5066607;28;20239;-74
2021/07/25 08:52:24;;;;;;;43.85;24.25;;;21.30;99.90;;;;;;5066378;28;20226;-73
2021/07/25 08:54:51;;;;;;;35.97;23.85;;;21.30;99.90;;;;;;5064185;28;20206;-72
2021/07/25 08:57:22;;;;;;;41.90;26.05;;;21.30;99.90;;;;;;5063301;28;20275;-71
2021/07/25 08:59:52;;;;;;;40.25;25.58;;;21.30;99.90;;;;;;5064269;28;20213;-69
2021/07/25 09:02:22;;;;;;;43.53;27.27;;;21.30;99.90;;;;;;5063725;28;20207;-69
2021/07/25 09:04:50;;;;;;;48.53;27.70;;;21.30;99.90;;;;;;5064958;28;20199;-73
2021/07/25 09:07:19;;;;;;;47.55;30.10;;;21.30;99.90;;;;;;5066063;28;20201;-73
2021/07/25 09:09:48;;;;;;;51.83;30.58;;;21.40;99.90;;;;;;5065099;28;20191;-74
2021/07/25 09:12:17;;;;;;;49.17;29.15;;;21.40;99.90;;;;;;5064680;28;20202;-73
2021/07/25 09:14:47;;;;;;;48.85;29.67;;;21.50;99.90;;;;;;5065926;28;20255;-75
2021/07/25 09:17:14;;;;;;;49.67;29.95;;;21.60;99.90;;;;;;5065461;28;20252;-70
2021/07/25 09:20:08;;;;;;;46.40;27.98;;;21.70;99.90;;;;;;5060632;28;20785;-72
2021/07/25 09:22:35;;;;;;;49.65;31.40;;;21.90;99.90;;;;;;5061983;28;20202;-71
2021/07/25 09:25:02;;;;;;;50.75;31.48;;;22.10;99.90;;;;;;5043606;28;20262;-72
2021/07/25 09:27:29;;;;;;;50.78;30.73;;;22.20;99.90;;;;;;5064599;28;20252;-74
2021/07/25 09:29:57;;;;;;;45.40;29.75;;;22.30;99.90;;;;;;5065819;28;20280;-72
2021/07/25 09:32:24;;;;;;;44.22;26.95;;;22.60;99.90;;;;;;5064145;28;20228;-72
2021/07/25 09:34:51;;;;;;;41.95;25.38;;;23.00;99.90;;;;;;5064680;28;20213;-67
2021/07/25 09:37:19;;;;;;;33.03;21.10;;;23.40;99.90;;;;;;5068074;28;20199;-68
2021/07/25 09:39:48;;;;;;;35.60;21.83;;;23.90;99.90;;;;;;5062469;28;20222;-69
2021/07/25 09:42:15;;;;;;;31.85;20.77;;;24.30;99.90;;;;;;5066989;28;20248;-70
2021/07/25 09:44:50;;;;;;;34.95;20.23;;;24.70;99.90;;;;;;5064130;28;20228;-71
2021/07/25 09:47:29;;;;;;;27.98;15.13;;;25.00;99.90;;;;;;5050815;28;20677;-70
2021/07/25 09:49:57;;;;;;;29.50;20.85;;;25.20;98.80;;;;;;5063393;28;20199;-70
2021/07/25 09:52:28;;;;;;;36.42;20.92;;;25.40;97.70;;;;;;5066818;28;20203;-68
2021/07/25 09:54:56;;;;;;;32.35;20.63;;;25.60;96.90;;;;;;5059369;28;20271;-70
2021/07/25 09:57:24;;;;;;;36.03;20.48;;;25.70;96.00;;;;;;5066701;28;20658;-70
2021/07/25 09:59:52;;;;;;;30.95;19.77;;;25.80;95.30;;;;;;5044462;28;20222;-70
2021/07/25 10:02:35;;;;;;;24.42;17.58;;;25.90;94.70;;;;;;5051111;28;20677;-71
2021/07/25 10:05:07;;;;;;;29.95;19.63;;;25.80;94.10;;;;;;5058160;28;20768;-69
2021/07/25 10:07:33;;;;;;;36.35;20.27;;;25.90;93.60;;;;;;5064891;28;20277;-70
2021/07/25 10:10:01;;;;;;;27.35;17.75;;;26.10;93.40;;;;;;5066519;28;20198;-71
2021/07/25 10:12:29;;;;;;;34.53;20.48;;;26.30;92.80;;;;;;5066098;28;20273;-70
2021/07/25 10:14:58;;;;;;;24.83;16.85;;;26.40;92.00;;;;;;5065471;28;20206;-70
2021/07/25 10:17:27;;;;;;;30.10;20.13;;;26.30;91.40;;;;;;5065425;28;20254;-71
2021/07/25 10:19:56;;;;;;;22.33;15.77;;;26.20;91.10;;;;;;5063017;28;20259;-71
2021/07/25 10:22:27;;;;;;;33.67;22.30;;;26.10;90.80;;;;;;5063433;28;20256;-71
2021/07/25 10:24:57;;;;;;;36.53;20.65;;;25.90;90.40;;;;;;5064175;28;20576;-70
2021/07/25 10:27:25;;;;;;;30.92;21.85;;;25.80;90.50;;;;;;5062815;28;20655;-70
2021/07/25 10:29:53;;;;;;;32.97;22.05;;;25.60;90.50;;;;;;5067529;28;20250;-72
2021/07/25 10:32:21;;;;;;;34.25;22.90;;;25.50;90.50;;;;;;5048203;28;20210;-70
2021/07/25 10:34:49;;;;;;;30.42;21.65;;;25.40;90.50;;;;;;5067135;28;20221;-69
2021/07/25 10:37:18;;;;;;;35.33;22.33;;;25.20;90.70;;;;;;5064587;28;20205;-70
2021/07/25 10:39:49;;;;;;;32.67;21.40;;;25.10;90.80;;;;;;5065805;28;20289;-69
2021/07/25 10:42:21;;;;;;;37.22;21.35;;;25.00;90.90;;;;;;5063870;28;20198;-71
2021/07/25 10:44:48;;;;;;;33.75;22.70;;;25.00;91.10;;;;;;5066097;28;20735;-69
2021/07/25 10:47:35;;;;;;;31.98;22.00;;;24.80;91.10;;;;;;5062372;28;20260;-70
2021/07/25 10:50:04;;;;;;;32.63;22.00;;;24.80;91.10;;;;;;5059987;28;20679;-68
2021/07/25 10:53:02;;;;;;;31.85;22.50;;;24.60;91.30;;;;;;5065248;28;21338;-74
2021/07/25 10:55:51;;;;;;;34.30;23.67;;;24.50;91.50;;;;;;5062645;28;20218;-72
2021/07/25 10:58:21;;;;;;;32.20;24.27;;;24.40;91.80;;;;;;5062302;28;20222;-73
2021/07/25 11:00:53;;;;;;;34.95;23.73;;;24.30;91.90;;;;;;5062609;28;20219;-73
2021/07/25 11:03:42;;;;;;;34.45;23.83;;;24.20;92.10;;;;;;5062889;28;20218;-70
2021/07/25 11:06:29;;;;;;;38.65;24.45;;;24.10;92.20;;;;;;5065465;28;20222;-70
2021/07/25 11:08:57;;;;;;;37.03;24.63;;;24.10;92.40;;;;;;5057892;28;20218;-72
2021/07/25 11:11:54;;;;;;;35.53;25.13;;;24.10;92.50;;;;;;5062766;28;20195;-71
2021/07/25 11:15:05;;;;;;;36.33;24.00;;;24.00;92.60;;;;;;5063660;28;20218;-69
2021/07/25 11:17:51;;;;;;;38.65;25.88;;;24.00;92.80;;;;;;5059548;28;20675;-71
2021/07/25 11:20:52;;;;;;;40.72;27.50;;;23.90;92.90;;;;;;5061239;28;20288;-68
2021/07/25 11:23:35;;;;;;;39.22;27.30;;;23.90;93.10;;;;;;5062467;28;20194;-69
2021/07/25 11:26:35;;;;;;;41.35;27.50;;;23.90;93.20;;;;;;5063999;28;20218;-68
2021/07/25 11:29:07;;;;;;;38.08;26.88;;;23.90;93.30;;;;;;5063433;28;20580;-71
2021/07/25 11:31:36;;;;;;;37.45;27.27;;;23.90;93.40;;;;;;5045446;28;20199;-69
2021/07/25 11:34:05;;;;;;;44.45;28.42;;;23.90;93.50;;;;;;5065467;28;20257;-67
2021/07/25 11:36:33;;;;;;;38.45;27.42;;;23.90;93.60;;;;;;5046192;28;20234;-69
2021/07/25 11:39:01;;;;;;;43.47;28.13;;;23.90;93.70;;;;;;5062465;28;20213;-69
2021/07/25 11:41:29;;;;;;;39.47;27.45;;;23.90;93.80;;;;;;5066330;28;20268;-70
2021/07/25 11:43:59;;;;;;;45.05;29.20;;;23.90;93.90;;;;;;5064963;28;20213;-71
2021/07/25 11:46:29;;;;;;;38.85;28.00;;;23.90;93.80;;;;;;5064931;28;20261;-70
2021/07/25 11:49:13;;;;;;;42.60;28.50;;;24.00;93.90;;;;;;5063506;28;20206;-71
2021/07/25 11:51:43;;;;;;;43.80;27.67;;;23.90;93.80;;;;;;5064751;28;20202;-70
2021/07/25 11:54:12;;;;;;;38.70;28.13;;;24.00;93.90;;;;;;5065026;28;20206;-69
2021/07/25 11:56:52;;;;;;;41.67;28.40;;;24.00;93.80;;;;;;5068412;28;20194;-70
2021/07/25 11:59:20;;;;;;;42.42;28.70;;;24.00;93.90;;;;;;5070534;28;20611;-70
2021/07/25 12:01:47;;;;;;;40.58;27.95;;;24.10;93.90;;;;;;5065984;28;20199;-68
2021/07/25 12:04:22;;;;;;;41.20;28.35;;;24.10;93.80;;;;;;5067918;28;20323;-70
2021/07/25 12:06:58;;;;;;;38.33;27.52;;;24.20;93.90;;;;;;5067168;28;20229;-72
2021/07/25 12:09:25;;;;;;;38.13;27.30;;;24.30;93.70;;;;;;5065861;28;20202;-70
2021/07/25 12:12:01;;;;;;;37.03;26.95;;;24.40;93.50;;;;;;5067102;28;21739;-69
2021/07/25 12:14:30;;;;;;;36.53;27.20;;;24.50;93.30;;;;;;5064910;28;20643;-70
2021/07/25 12:16:57;;;;;;;36.88;26.08;;;24.70;93.30;;;;;;5064070;28;20583;-71
2021/07/25 12:19:24;;;;;;;36.17;26.00;;;24.80;93.10;;;;;;5064286;28;20195;-68
2021/07/25 12:22:09;;;;;;;38.08;27.45;;;25.00;92.70;;;;;;5067999;28;21695;-69
2021/07/25 12:24:38;;;;;;;35.13;24.52;;;25.10;92.10;;;;;;5064141;28;20256;-68
2021/07/25 12:27:06;;;;;;;36.10;26.35;;;25.10;92.00;;;;;;5050558;28;20213;-68
2021/07/25 12:29:44;;;;;;;34.60;25.15;;;25.10;91.80;;;;;;5062934;28;20539;-67
2021/07/25 12:32:31;;;;;;;46.35;33.70;;;25.10;91.70;;;;;;5069473;28;20202;-71
2021/07/25 12:35:32;;;;;;;36.92;28.45;;;25.00;91.50;;;;;;5067128;28;20203;-70
2021/07/25 12:38:00;;;;;;;38.90;28.75;;;24.90;91.50;;;;;;5001131;28;20220;-69